sensor_id;sensor_type;location;lat;lon;timestamp;temperature;humidity
45409;DHT22;31162;51.076;3.784;2023-06-14T00:00:20;20.30;99.90
45409;DHT22;31162;51.076;3.784;2023-06-14T00:02:46;20.20;99.90
45409;DHT22;31162;51.076;3.784;2023-06-14T00:05:12;20.20;99.90
45409;DHT22;31162;51.076;3.784;2023-06-14T00:07:41;20.20;99.90
45409;DHT22;31162;51.076;3.784;2023-06-14T00:10:14;20.20;99.90
45409;DHT22;31162;51.076;3.784;2023-06-14T00:12:40;20.20;99.90
45409;DHT22;31162;51.076;3.784;2023-06-14T00:15:07;20.20;99.90
45409;DHT22;31162;51.076;3.784;2023-06-14T00:17:35;20.10;99.90
45409;DHT22;31162;51.076;3.784;2023-06-14T00:20:03;20.10;99.90
45409;DHT22;31162;51.076;3.784;2023-06-14T00:22:30;20.00;99.90
45409;DHT22;31162;51.076;3.784;2023-06-14T00:24:57;20.00;99.90
45409;DHT22;31162;51.076;3.784;2023-06-14T00:27:22;20.00;99.90
45409;DHT22;31162;51.076;3.784;2023-06-14T00:29:48;20.00;99.90
45409;DHT22;31162;51.076;3.784;2023-06-14T00:32:14;20.00;99.90
45409;DHT22;31162;51.076;3.784;2023-06-14T00:34:40;20.00;99.90
45409;DHT22;31162;51.076;3.784;2023-06-14T00:37:05;19.90;99.90
45409;DHT22;31162;51.076;3.784;2023-06-14T00:39:31;19.90;99.90
45409;DHT22;31162;51.076;3.784;2023-06-14T00:41:57;19.90;99.90
45409;DHT22;31162;51.076;3.784;2023-06-14T00:44:23;19.80;99.90
45409;DHT22;31162;51.076;3.784;2023-06-14T00:46:49;19.80;99.90
45409;DHT22;31162;51.076;3.784;2023-06-14T00:49:16;19.70;99.90
45409;DHT22;31162;51.076;3.784;2023-06-14T00:51:42;19.70;99.90
45409;DHT22;31162;51.076;3.784;2023-06-14T00:54:08;19.70;99.90
45409;DHT22;31162;51.076;3.784;2023-06-14T00:56:36;19.70;99.90
45409;DHT22;31162;51.076;3.784;2023-06-14T00:59:03;19.60;99.90
45409;DHT22;31162;51.076;3.784;2023-06-14T01:01:30;19.60;99.90
45409;DHT22;31162;51.076;3.784;2023-06-14T01:04:00;19.60;99.90
45409;DHT22;31162;51.076;3.784;2023-06-14T01:06:51;19.60;99.90
45409;DHT22;31162;51.076;3.784;2023-06-14T01:12:28;19.50;99.90
45409;DHT22;31162;51.076;3.784;2023-06-14T01:14:57;19.40;99.90
45409;DHT22;31162;51.076;3.784;2023-06-14T01:17:24;19.40;99.90
45409;DHT22;31162;51.076;3.784;2023-06-14T01:19:52;19.30;99.90
45409;DHT22;31162;51.076;3.784;2023-06-14T01:22:27;19.30;99.90
45409;DHT22;31162;51.076;3.784;2023-06-14T01:24:53;19.20;99.90
45409;DHT22;31162;51.076;3.784;2023-06-14T01:27:22;19.20;99.90
45409;DHT22;31162;51.076;3.784;2023-06-14T01:29:51;19.20;99.90
45409;DHT22;31162;51.076;3.784;2023-06-14T01:32:18;19.20;99.90
45409;DHT22;31162;51.076;3.784;2023-06-14T01:34:44;19.10;99.90
45409;DHT22;31162;51.076;3.784;2023-06-14T01:37:11;19.00;99.90
45409;DHT22;31162;51.076;3.784;2023-06-14T01:39:37;19.00;99.90
45409;DHT22;31162;51.076;3.784;2023-06-14T01:42:26;19.00;99.90
45409;DHT22;31162;51.076;3.784;2023-06-14T01:44:53;19.00;99.90
45409;DHT22;31162;51.076;3.784;2023-06-14T01:47:19;18.90;99.90
45409;DHT22;31162;51.076;3.784;2023-06-14T01:49:46;18.90;99.90
45409;DHT22;31162;51.076;3.784;2023-06-14T01:52:12;18.90;99.90
45409;DHT22;31162;51.076;3.784;2023-06-14T01:54:38;18.90;99.90
45409;DHT22;31162;51.076;3.784;2023-06-14T01:57:08;18.80;99.90
45409;DHT22;31162;51.076;3.784;2023-06-14T01:59:34;18.70;99.90
45409;DHT22;31162;51.076;3.784;2023-06-14T02:02:02;18.70;99.90
45409;DHT22;31162;51.076;3.784;2023-06-14T02:04:28;18.70;99.90
45409;DHT22;31162;51.076;3.784;2023-06-14T02:06:54;18.60;99.90
45409;DHT22;31162;51.076;3.784;2023-06-14T02:09:20;18.50;99.90
45409;DHT22;31162;51.076;3.784;2023-06-14T02:11:47;18.50;99.90
45409;DHT22;31162;51.076;3.784;2023-06-14T02:14:13;18.50;99.90
45409;DHT22;31162;51.076;3.784;2023-06-14T02:16:40;18.50;99.90
45409;DHT22;31162;51.076;3.784;2023-06-14T02:19:05;18.40;99.90
45409;DHT22;31162;51.076;3.784;2023-06-14T02:21:31;18.40;99.90
45409;DHT22;31162;51.076;3.784;2023-06-14T02:23:56;18.50;99.90
45409;DHT22;31162;51.076;3.784;2023-06-14T02:26:23;18.40;99.90
45409;DHT22;31162;51.076;3.784;2023-06-14T02:28:49;18.40;99.90
45409;DHT22;31162;51.076;3.784;2023-06-14T02:31:15;18.40;99.90
45409;DHT22;31162;51.076;3.784;2023-06-14T02:33:41;18.30;99.90
45409;DHT22;31162;51.076;3.784;2023-06-14T02:36:07;18.30;99.90
45409;DHT22;31162;51.076;3.784;2023-06-14T02:38:32;18.30;99.90
45409;DHT22;31162;51.076;3.784;2023-06-14T02:40:58;18.30;99.90
45409;DHT22;31162;51.076;3.784;2023-06-14T02:43:28;18.10;99.90
45409;DHT22;31162;51.076;3.784;2023-06-14T02:45:54;18.10;99.90
45409;DHT22;31162;51.076;3.784;2023-06-14T02:48:20;18.10;99.90
45409;DHT22;31162;51.076;3.784;2023-06-14T02:50:45;18.10;99.90
45409;DHT22;31162;51.076;3.784;2023-06-14T02:53:11;18.00;99.90
45409;DHT22;31162;51.076;3.784;2023-06-14T02:55:37;18.00;99.90
45409;DHT22;31162;51.076;3.784;2023-06-14T02:58:05;17.90;99.90
45409;DHT22;31162;51.076;3.784;2023-06-14T03:00:33;17.90;99.90
45409;DHT22;31162;51.076;3.784;2023-06-14T03:03:00;17.90;99.90
45409;DHT22;31162;51.076;3.784;2023-06-14T03:05:27;17.90;99.90
45409;DHT22;31162;51.076;3.784;2023-06-14T03:07:53;17.80;99.90
45409;DHT22;31162;51.076;3.784;2023-06-14T03:10:20;17.80;99.90
45409;DHT22;31162;51.076;3.784;2023-06-14T03:12:47;17.80;99.90
45409;DHT22;31162;51.076;3.784;2023-06-14T03:15:13;17.80;99.90
45409;DHT22;31162;51.076;3.784;2023-06-14T03:17:39;17.70;99.90
45409;DHT22;31162;51.076;3.784;2023-06-14T03:20:05;17.70;99.90
45409;DHT22;31162;51.076;3.784;2023-06-14T03:22:31;17.70;99.90
45409;DHT22;31162;51.076;3.784;2023-06-14T03:24:59;17.70;99.90
45409;DHT22;31162;51.076;3.784;2023-06-14T03:27:25;17.60;99.90
45409;DHT22;31162;51.076;3.784;2023-06-14T03:29:54;17.60;99.90
45409;DHT22;31162;51.076;3.784;2023-06-14T03:32:19;17.50;99.90
45409;DHT22;31162;51.076;3.784;2023-06-14T03:34:45;17.50;99.90
45409;DHT22;31162;51.076;3.784;2023-06-14T03:37:11;17.40;99.90
45409;DHT22;31162;51.076;3.784;2023-06-14T03:39:37;17.50;99.90
45409;DHT22;31162;51.076;3.784;2023-06-14T03:42:03;17.60;99.90
45409;DHT22;31162;51.076;3.784;2023-06-14T03:44:31;17.60;99.90
45409;DHT22;31162;51.076;3.784;2023-06-14T03:46:57;17.60;99.90
45409;DHT22;31162;51.076;3.784;2023-06-14T03:49:22;17.50;99.90
45409;DHT22;31162;51.076;3.784;2023-06-14T03:51:48;17.50;99.90
45409;DHT22;31162;51.076;3.784;2023-06-14T03:54:16;17.50;99.90
45409;DHT22;31162;51.076;3.784;2023-06-14T03:56:44;17.60;99.90
45409;DHT22;31162;51.076;3.784;2023-06-14T03:59:11;17.60;99.90
45409;DHT22;31162;51.076;3.784;2023-06-14T04:01:36;17.60;99.90
45409;DHT22;31162;51.076;3.784;2023-06-14T04:04:02;17.60;99.90
45409;DHT22;31162;51.076;3.784;2023-06-14T04:06:28;17.60;99.90
45409;DHT22;31162;51.076;3.784;2023-06-14T04:08:58;17.60;99.90
45409;DHT22;31162;51.076;3.784;2023-06-14T04:11:27;17.60;99.90
45409;DHT22;31162;51.076;3.784;2023-06-14T04:13:55;17.60;99.90
45409;DHT22;31162;51.076;3.784;2023-06-14T04:16:22;17.70;99.90
45409;DHT22;31162;51.076;3.784;2023-06-14T04:18:47;17.70;99.90
45409;DHT22;31162;51.076;3.784;2023-06-14T04:21:16;17.80;99.90
45409;DHT22;31162;51.076;3.784;2023-06-14T04:23:42;17.90;99.90
45409;DHT22;31162;51.076;3.784;2023-06-14T04:26:09;17.90;99.90
45409;DHT22;31162;51.076;3.784;2023-06-14T04:28:36;18.00;99.90
45409;DHT22;31162;51.076;3.784;2023-06-14T04:31:06;18.10;99.90
45409;DHT22;31162;51.076;3.784;2023-06-14T04:33:35;18.10;99.90
45409;DHT22;31162;51.076;3.784;2023-06-14T04:36:09;18.20;99.90
45409;DHT22;31162;51.076;3.784;2023-06-14T04:38:37;18.20;99.90
45409;DHT22;31162;51.076;3.784;2023-06-14T04:41:03;18.30;99.90
45409;DHT22;31162;51.076;3.784;2023-06-14T04:43:29;18.40;99.90
45409;DHT22;31162;51.076;3.784;2023-06-14T04:45:54;18.40;99.90
45409;DHT22;31162;51.076;3.784;2023-06-14T04:48:22;18.40;99.90
45409;DHT22;31162;51.076;3.784;2023-06-14T04:50:48;18.50;99.90
45409;DHT22;31162;51.076;3.784;2023-06-14T04:53:18;18.50;99.90
45409;DHT22;31162;51.076;3.784;2023-06-14T04:55:47;18.60;99.90
45409;DHT22;31162;51.076;3.784;2023-06-14T04:58:12;18.80;99.90
45409;DHT22;31162;51.076;3.784;2023-06-14T05:00:38;18.90;99.90
45409;DHT22;31162;51.076;3.784;2023-06-14T05:03:04;18.90;99.90
45409;DHT22;31162;51.076;3.784;2023-06-14T05:05:31;19.00;99.90
45409;DHT22;31162;51.076;3.784;2023-06-14T05:07:57;19.10;99.90
45409;DHT22;31162;51.076;3.784;2023-06-14T05:10:24;19.20;99.90
45409;DHT22;31162;51.076;3.784;2023-06-14T05:12:49;19.20;99.90
45409;DHT22;31162;51.076;3.784;2023-06-14T05:15:15;19.30;99.90
45409;DHT22;31162;51.076;3.784;2023-06-14T05:17:41;19.60;99.90
45409;DHT22;31162;51.076;3.784;2023-06-14T05:20:08;19.80;99.90
45409;DHT22;31162;51.076;3.784;2023-06-14T05:22:35;20.00;99.90
45409;DHT22;31162;51.076;3.784;2023-06-14T05:25:01;20.30;99.90
45409;DHT22;31162;51.076;3.784;2023-06-14T05:27:27;21.10;99.40
45409;DHT22;31162;51.076;3.784;2023-06-14T05:29:53;22.30;97.60
45409;DHT22;31162;51.076;3.784;2023-06-14T05:32:24;23.00;95.80
45409;DHT22;31162;51.076;3.784;2023-06-14T05:34:49;22.50;95.10
45409;DHT22;31162;51.076;3.784;2023-06-14T05:37:15;22.00;95.40
45409;DHT22;31162;51.076;3.784;2023-06-14T05:39:41;21.70;95.60
45409;DHT22;31162;51.076;3.784;2023-06-14T05:42:07;21.50;95.50
45409;DHT22;31162;51.076;3.784;2023-06-14T05:44:32;21.30;95.90
45409;DHT22;31162;51.076;3.784;2023-06-14T05:47:01;21.30;95.60
45409;DHT22;31162;51.076;3.784;2023-06-14T05:49:26;21.10;95.70
45409;DHT22;31162;51.076;3.784;2023-06-14T05:51:52;21.30;95.70
45409;DHT22;31162;51.076;3.784;2023-06-14T05:54:18;21.70;95.70
45409;DHT22;31162;51.076;3.784;2023-06-14T05:56:43;21.90;95.00
45409;DHT22;31162;51.076;3.784;2023-06-14T05:59:09;22.00;95.20
45409;DHT22;31162;51.076;3.784;2023-06-14T06:01:34;23.00;93.60
45409;DHT22;31162;51.076;3.784;2023-06-14T06:04:02;23.50;92.70
45409;DHT22;31162;51.076;3.784;2023-06-14T06:06:28;24.70;91.20
45409;DHT22;31162;51.076;3.784;2023-06-14T06:08:54;24.30;90.70
45409;DHT22;31162;51.076;3.784;2023-06-14T06:11:19;23.50;91.20
45409;DHT22;31162;51.076;3.784;2023-06-14T06:13:45;23.10;91.60
45409;DHT22;31162;51.076;3.784;2023-06-14T06:16:11;23.20;91.90
45409;DHT22;31162;51.076;3.784;2023-06-14T06:18:37;24.10;91.00
45409;DHT22;31162;51.076;3.784;2023-06-14T06:21:04;24.30;90.60
45409;DHT22;31162;51.076;3.784;2023-06-14T06:23:29;25.60;88.70
45409;DHT22;31162;51.076;3.784;2023-06-14T06:25:55;26.20;87.10
45409;DHT22;31162;51.076;3.784;2023-06-14T06:28:23;25.50;88.20
45409;DHT22;31162;51.076;3.784;2023-06-14T06:30:49;24.70;87.50
45409;DHT22;31162;51.076;3.784;2023-06-14T06:33:16;24.00;89.10
45409;DHT22;31162;51.076;3.784;2023-06-14T06:35:42;24.00;89.30
45409;DHT22;31162;51.076;3.784;2023-06-14T06:38:08;24.20;89.70
45409;DHT22;31162;51.076;3.784;2023-06-14T06:40:35;24.70;88.70
45409;DHT22;31162;51.076;3.784;2023-06-14T06:43:02;26.80;86.30
45409;DHT22;31162;51.076;3.784;2023-06-14T06:45:28;29.70;81.20
45409;DHT22;31162;51.076;3.784;2023-06-14T06:47:54;31.60;76.80
45409;DHT22;31162;51.076;3.784;2023-06-14T06:50:21;33.60;74.30
45409;DHT22;31162;51.076;3.784;2023-06-14T06:52:48;35.30;70.80
45409;DHT22;31162;51.076;3.784;2023-06-14T06:55:14;35.50;69.30
45409;DHT22;31162;51.076;3.784;2023-06-14T06:57:40;36.10;68.30
45409;DHT22;31162;51.076;3.784;2023-06-14T07:00:06;36.10;68.40
45409;DHT22;31162;51.076;3.784;2023-06-14T07:02:36;37.70;66.30
45409;DHT22;31162;51.076;3.784;2023-06-14T07:05:02;38.40;65.90
45409;DHT22;31162;51.076;3.784;2023-06-14T07:07:27;38.90;64.70
45409;DHT22;31162;51.076;3.784;2023-06-14T07:09:53;39.70;63.30
45409;DHT22;31162;51.076;3.784;2023-06-14T07:12:19;39.50;62.70
45409;DHT22;31162;51.076;3.784;2023-06-14T07:14:44;40.40;62.20
45409;DHT22;31162;51.076;3.784;2023-06-14T07:17:10;40.60;62.30
45409;DHT22;31162;51.076;3.784;2023-06-14T07:19:35;41.10;60.90
45409;DHT22;31162;51.076;3.784;2023-06-14T07:22:01;41.40;60.60
45409;DHT22;31162;51.076;3.784;2023-06-14T07:24:27;40.30;59.60
45409;DHT22;31162;51.076;3.784;2023-06-14T07:26:53;38.20;61.40
45409;DHT22;31162;51.076;3.784;2023-06-14T07:29:20;37.10;61.70
45409;DHT22;31162;51.076;3.784;2023-06-14T07:31:46;37.30;62.20
45409;DHT22;31162;51.076;3.784;2023-06-14T07:34:12;36.70;62.20
45409;DHT22;31162;51.076;3.784;2023-06-14T07:36:37;37.70;62.90
45409;DHT22;31162;51.076;3.784;2023-06-14T07:39:04;39.70;61.60
45409;DHT22;31162;51.076;3.784;2023-06-14T07:41:31;39.80;60.40
45409;DHT22;31162;51.076;3.784;2023-06-14T07:43:57;41.10;61.20
45409;DHT22;31162;51.076;3.784;2023-06-14T07:46:22;40.90;59.30
45409;DHT22;31162;51.076;3.784;2023-06-14T07:48:48;40.70;60.30
45409;DHT22;31162;51.076;3.784;2023-06-14T07:51:14;42.40;59.90
45409;DHT22;31162;51.076;3.784;2023-06-14T07:53:39;43.50;59.10
45409;DHT22;31162;51.076;3.784;2023-06-14T07:56:06;44.20;58.90
45409;DHT22;31162;51.076;3.784;2023-06-14T07:58:32;43.60;57.90
45409;DHT22;31162;51.076;3.784;2023-06-14T08:00:57;43.80;58.20
45409;DHT22;31162;51.076;3.784;2023-06-14T08:03:23;44.90;58.40
45409;DHT22;31162;51.076;3.784;2023-06-14T08:05:49;45.00;57.10
45409;DHT22;31162;51.076;3.784;2023-06-14T08:08:15;42.90;57.80
45409;DHT22;31162;51.076;3.784;2023-06-14T08:10:41;43.60;57.60
45409;DHT22;31162;51.076;3.784;2023-06-14T08:13:07;44.20;58.00
45409;DHT22;31162;51.076;3.784;2023-06-14T08:15:34;45.30;56.40
45409;DHT22;31162;51.076;3.784;2023-06-14T08:18:00;46.30;56.40
45409;DHT22;31162;51.076;3.784;2023-06-14T08:20:26;46.50;55.80
45409;DHT22;31162;51.076;3.784;2023-06-14T08:22:52;46.30;55.90
45409;DHT22;31162;51.076;3.784;2023-06-14T08:25:22;46.10;55.30
45409;DHT22;31162;51.076;3.784;2023-06-14T08:27:48;45.60;56.00
45409;DHT22;31162;51.076;3.784;2023-06-14T08:30:14;46.00;56.40
45409;DHT22;31162;51.076;3.784;2023-06-14T08:32:40;46.40;56.10
45409;DHT22;31162;51.076;3.784;2023-06-14T08:35:06;47.00;55.50
45409;DHT22;31162;51.076;3.784;2023-06-14T08:37:32;47.50;55.00
45409;DHT22;31162;51.076;3.784;2023-06-14T08:40:02;48.10;55.10
45409;DHT22;31162;51.076;3.784;2023-06-14T08:42:31;48.10;54.70
45409;DHT22;31162;51.076;3.784;2023-06-14T08:44:57;47.60;53.40
45409;DHT22;31162;51.076;3.784;2023-06-14T08:47:23;46.00;54.70
45409;DHT22;31162;51.076;3.784;2023-06-14T08:49:52;46.50;54.10
45409;DHT22;31162;51.076;3.784;2023-06-14T08:52:21;45.50;54.60
45409;DHT22;31162;51.076;3.784;2023-06-14T08:54:48;41.80;55.80
45409;DHT22;31162;51.076;3.784;2023-06-14T08:57:14;43.30;55.50
45409;DHT22;31162;51.076;3.784;2023-06-14T08:59:46;43.90;54.50
45409;DHT22;31162;51.076;3.784;2023-06-14T09:02:15;42.10;55.00
45409;DHT22;31162;51.076;3.784;2023-06-14T09:04:45;42.50;55.40
45409;DHT22;31162;51.076;3.784;2023-06-14T09:07:11;43.40;55.80
45409;DHT22;31162;51.076;3.784;2023-06-14T09:09:41;44.50;55.00
45409;DHT22;31162;51.076;3.784;2023-06-14T09:12:10;45.90;54.30
45409;DHT22;31162;51.076;3.784;2023-06-14T09:14:37;46.90;54.20
45409;DHT22;31162;51.076;3.784;2023-06-14T09:17:05;47.90;53.20
45409;DHT22;31162;51.076;3.784;2023-06-14T09:19:31;48.30;52.70
45409;DHT22;31162;51.076;3.784;2023-06-14T09:21:57;48.30;51.70
45409;DHT22;31162;51.076;3.784;2023-06-14T09:24:24;48.20;52.20
45409;DHT22;31162;51.076;3.784;2023-06-14T09:26:51;48.10;53.00
45409;DHT22;31162;51.076;3.784;2023-06-14T09:29:18;47.60;52.10
45409;DHT22;31162;51.076;3.784;2023-06-14T09:31:47;46.10;51.40
45409;DHT22;31162;51.076;3.784;2023-06-14T09:34:13;46.20;52.10
45409;DHT22;31162;51.076;3.784;2023-06-14T09:36:42;46.00;51.90
45409;DHT22;31162;51.076;3.784;2023-06-14T09:39:08;45.40;51.80
45409;DHT22;31162;51.076;3.784;2023-06-14T09:41:38;45.90;52.10
45409;DHT22;31162;51.076;3.784;2023-06-14T09:44:06;46.50;52.40
45409;DHT22;31162;51.076;3.784;2023-06-14T09:46:33;45.90;52.30
45409;DHT22;31162;51.076;3.784;2023-06-14T09:49:00;45.60;51.20
45409;DHT22;31162;51.076;3.784;2023-06-14T09:51:27;45.80;51.20
45409;DHT22;31162;51.076;3.784;2023-06-14T09:53:58;45.10;51.20
45409;DHT22;31162;51.076;3.784;2023-06-14T09:56:29;44.10;51.70
45409;DHT22;31162;51.076;3.784;2023-06-14T09:58:59;43.90;52.40
45409;DHT22;31162;51.076;3.784;2023-06-14T10:01:26;44.80;51.50
45409;DHT22;31162;51.076;3.784;2023-06-14T10:04:08;45.10;51.50
45409;DHT22;31162;51.076;3.784;2023-06-14T10:06:40;44.80;50.30
45409;DHT22;31162;51.076;3.784;2023-06-14T10:09:08;44.70;50.80
45409;DHT22;31162;51.076;3.784;2023-06-14T10:11:36;44.20;51.40
45409;DHT22;31162;51.076;3.784;2023-06-14T10:14:03;43.30;52.30
45409;DHT22;31162;51.076;3.784;2023-06-14T10:16:42;43.30;52.00
45409;DHT22;31162;51.076;3.784;2023-06-14T10:19:47;43.70;52.20
45409;DHT22;31162;51.076;3.784;2023-06-14T10:25:02;41.80;53.20
45409;DHT22;31162;51.076;3.784;2023-06-14T10:27:27;41.90;51.00
45409;DHT22;31162;51.076;3.784;2023-06-14T10:32:20;40.20;53.10
45409;DHT22;31162;51.076;3.784;2023-06-14T10:35:04;41.20;52.70
45409;DHT22;31162;51.076;3.784;2023-06-14T10:37:31;41.40;51.70
45409;DHT22;31162;51.076;3.784;2023-06-14T10:39:56;41.70;52.00
45409;DHT22;31162;51.076;3.784;2023-06-14T10:42:28;41.90;51.10
45409;DHT22;31162;51.076;3.784;2023-06-14T10:44:55;42.70;51.50
45409;DHT22;31162;51.076;3.784;2023-06-14T10:47:32;42.50;50.50
45409;DHT22;31162;51.076;3.784;2023-06-14T10:52:28;42.10;53.70
45409;DHT22;31162;51.076;3.784;2023-06-14T10:57:51;42.30;51.00
45409;DHT22;31162;51.076;3.784;2023-06-14T11:00:32;43.10;51.40
45409;DHT22;31162;51.076;3.784;2023-06-14T11:03:23;43.60;51.50
45409;DHT22;31162;51.076;3.784;2023-06-14T11:05:56;44.30;51.60
45409;DHT22;31162;51.076;3.784;2023-06-14T11:08:39;45.00;50.90
45409;DHT22;31162;51.076;3.784;2023-06-14T11:11:08;44.70;50.00
45409;DHT22;31162;51.076;3.784;2023-06-14T11:13:37;43.50;50.80
45409;DHT22;31162;51.076;3.784;2023-06-14T11:16:10;42.40;50.60
45409;DHT22;31162;51.076;3.784;2023-06-14T11:18:36;40.40;51.00
45409;DHT22;31162;51.076;3.784;2023-06-14T11:21:02;40.10;51.80
45409;DHT22;31162;51.076;3.784;2023-06-14T11:23:28;39.50;52.60
45409;DHT22;31162;51.076;3.784;2023-06-14T11:25:53;40.40;52.20
45409;DHT22;31162;51.076;3.784;2023-06-14T11:28:19;40.60;52.20
45409;DHT22;31162;51.076;3.784;2023-06-14T11:30:47;41.40;51.50
45409;DHT22;31162;51.076;3.784;2023-06-14T11:33:17;41.10;51.70
45409;DHT22;31162;51.076;3.784;2023-06-14T11:35:44;41.10;52.60
45409;DHT22;31162;51.076;3.784;2023-06-14T11:38:10;41.70;50.60
45409;DHT22;31162;51.076;3.784;2023-06-14T11:40:38;41.90;52.90
45409;DHT22;31162;51.076;3.784;2023-06-14T11:43:04;42.00;50.70
45409;DHT22;31162;51.076;3.784;2023-06-14T11:45:30;41.00;49.70
45409;DHT22;31162;51.076;3.784;2023-06-14T11:47:57;41.20;50.30
45409;DHT22;31162;51.076;3.784;2023-06-14T11:50:23;40.20;51.00
45409;DHT22;31162;51.076;3.784;2023-06-14T11:52:56;40.30;51.20
45409;DHT22;31162;51.076;3.784;2023-06-14T11:55:22;41.20;51.80
45409;DHT22;31162;51.076;3.784;2023-06-14T11:57:48;40.90;50.10
45409;DHT22;31162;51.076;3.784;2023-06-14T12:00:15;39.60;52.40
45409;DHT22;31162;51.076;3.784;2023-06-14T12:02:42;39.90;52.00
45409;DHT22;31162;51.076;3.784;2023-06-14T12:05:08;40.30;51.20
45409;DHT22;31162;51.076;3.784;2023-06-14T12:07:38;39.50;52.20
45409;DHT22;31162;51.076;3.784;2023-06-14T12:10:06;39.50;52.30
45409;DHT22;31162;51.076;3.784;2023-06-14T12:12:39;39.70;53.50
45409;DHT22;31162;51.076;3.784;2023-06-14T12:15:06;38.60;53.00
45409;DHT22;31162;51.076;3.784;2023-06-14T12:17:34;37.90;53.10
45409;DHT22;31162;51.076;3.784;2023-06-14T12:20:08;36.60;54.90
45409;DHT22;31162;51.076;3.784;2023-06-14T12:22:55;36.20;54.30
45409;DHT22;31162;51.076;3.784;2023-06-14T12:25:30;36.30;55.10
45409;DHT22;31162;51.076;3.784;2023-06-14T12:28:07;35.90;54.00
45409;DHT22;31162;51.076;3.784;2023-06-14T12:30:33;35.20;54.80
45409;DHT22;31162;51.076;3.784;2023-06-14T12:33:00;34.20;56.00
45409;DHT22;31162;51.076;3.784;2023-06-14T12:35:27;34.00;56.90
45409;DHT22;31162;51.076;3.784;2023-06-14T12:37:53;34.00;56.60
45409;DHT22;31162;51.076;3.784;2023-06-14T12:40:21;34.10;57.70
45409;DHT22;31162;51.076;3.784;2023-06-14T12:42:47;34.00;56.60
45409;DHT22;31162;51.076;3.784;2023-06-14T12:45:13;33.70;56.50
45409;DHT22;31162;51.076;3.784;2023-06-14T12:47:39;33.40;57.30
45409;DHT22;31162;51.076;3.784;2023-06-14T12:50:05;33.40;56.60
45409;DHT22;31162;51.076;3.784;2023-06-14T12:52:32;33.60;57.30
45409;DHT22;31162;51.076;3.784;2023-06-14T12:55:04;33.70;56.90
45409;DHT22;31162;51.076;3.784;2023-06-14T12:57:29;33.70;55.90
45409;DHT22;31162;51.076;3.784;2023-06-14T12:59:55;33.70;57.70
45409;DHT22;31162;51.076;3.784;2023-06-14T13:02:21;33.60;57.20
45409;DHT22;31162;51.076;3.784;2023-06-14T13:04:49;33.70;56.80
45409;DHT22;31162;51.076;3.784;2023-06-14T13:07:14;33.70;56.80
45409;DHT22;31162;51.076;3.784;2023-06-14T13:09:41;33.80;57.40
45409;DHT22;31162;51.076;3.784;2023-06-14T13:12:07;33.70;57.60
45409;DHT22;31162;51.076;3.784;2023-06-14T13:14:33;33.80;56.70
45409;DHT22;31162;51.076;3.784;2023-06-14T13:16:59;34.00;56.70
45409;DHT22;31162;51.076;3.784;2023-06-14T13:19:25;33.80;56.60
45409;DHT22;31162;51.076;3.784;2023-06-14T13:21:51;32.90;57.10
45409;DHT22;31162;51.076;3.784;2023-06-14T13:24:16;32.50;56.80
45409;DHT22;31162;51.076;3.784;2023-06-14T13:26:44;32.20;57.10
45409;DHT22;31162;51.076;3.784;2023-06-14T13:29:10;32.10;58.50
45409;DHT22;31162;51.076;3.784;2023-06-14T13:31:36;32.20;58.00
45409;DHT22;31162;51.076;3.784;2023-06-14T13:34:01;32.20;58.00
45409;DHT22;31162;51.076;3.784;2023-06-14T13:36:27;32.20;57.70
45409;DHT22;31162;51.076;3.784;2023-06-14T13:38:53;32.10;57.20
45409;DHT22;31162;51.076;3.784;2023-06-14T13:41:20;32.10;56.90
45409;DHT22;31162;51.076;3.784;2023-06-14T13:43:46;32.20;57.50
45409;DHT22;31162;51.076;3.784;2023-06-14T13:46:12;32.30;57.90
45409;DHT22;31162;51.076;3.784;2023-06-14T13:48:38;32.10;56.30
45409;DHT22;31162;51.076;3.784;2023-06-14T13:51:03;32.00;57.80
45409;DHT22;31162;51.076;3.784;2023-06-14T13:53:29;32.20;56.90
45409;DHT22;31162;51.076;3.784;2023-06-14T13:55:55;32.40;57.40
45409;DHT22;31162;51.076;3.784;2023-06-14T13:58:21;32.50;57.70
45409;DHT22;31162;51.076;3.784;2023-06-14T14:00:48;31.70;57.50
45409;DHT22;31162;51.076;3.784;2023-06-14T14:03:14;31.40;58.20
45409;DHT22;31162;51.076;3.784;2023-06-14T14:05:40;31.50;58.00
45409;DHT22;31162;51.076;3.784;2023-06-14T14:08:05;31.40;58.60
45409;DHT22;31162;51.076;3.784;2023-06-14T14:10:31;31.60;58.40
45409;DHT22;31162;51.076;3.784;2023-06-14T14:12:57;31.70;59.20
45409;DHT22;31162;51.076;3.784;2023-06-14T14:15:22;31.80;57.90
45409;DHT22;31162;51.076;3.784;2023-06-14T14:17:48;31.50;58.50
45409;DHT22;31162;51.076;3.784;2023-06-14T14:20:14;31.40;58.70
45409;DHT22;31162;51.076;3.784;2023-06-14T14:22:44;31.20;58.80
45409;DHT22;31162;51.076;3.784;2023-06-14T14:25:10;31.60;59.00
45409;DHT22;31162;51.076;3.784;2023-06-14T14:27:36;31.70;58.10
45409;DHT22;31162;51.076;3.784;2023-06-14T14:30:03;31.80;58.10
45409;DHT22;31162;51.076;3.784;2023-06-14T14:32:29;31.80;57.10
45409;DHT22;31162;51.076;3.784;2023-06-14T14:34:55;31.70;57.20
45409;DHT22;31162;51.076;3.784;2023-06-14T14:37:21;31.40;57.30
45409;DHT22;31162;51.076;3.784;2023-06-14T14:39:46;31.40;58.00
45409;DHT22;31162;51.076;3.784;2023-06-14T14:42:12;31.60;59.00
45409;DHT22;31162;51.076;3.784;2023-06-14T14:44:40;31.80;58.50
45409;DHT22;31162;51.076;3.784;2023-06-14T14:47:06;31.90;57.70
45409;DHT22;31162;51.076;3.784;2023-06-14T14:49:32;31.80;57.00
45409;DHT22;31162;51.076;3.784;2023-06-14T14:51:58;31.80;57.00
45409;DHT22;31162;51.076;3.784;2023-06-14T14:54:23;31.60;57.90
45409;DHT22;31162;51.076;3.784;2023-06-14T14:56:51;31.50;57.30
45409;DHT22;31162;51.076;3.784;2023-06-14T14:59:16;31.50;58.10
45409;DHT22;31162;51.076;3.784;2023-06-14T15:01:42;31.60;57.50
45409;DHT22;31162;51.076;3.784;2023-06-14T15:04:08;31.60;56.30
45409;DHT22;31162;51.076;3.784;2023-06-14T15:06:34;31.60;56.80
45409;DHT22;31162;51.076;3.784;2023-06-14T15:09:01;31.60;56.30
45409;DHT22;31162;51.076;3.784;2023-06-14T15:11:27;31.10;56.80
45409;DHT22;31162;51.076;3.784;2023-06-14T15:13:53;31.00;56.70
45409;DHT22;31162;51.076;3.784;2023-06-14T15:16:19;31.00;56.70
45409;DHT22;31162;51.076;3.784;2023-06-14T15:18:45;30.60;57.10
45409;DHT22;31162;51.076;3.784;2023-06-14T15:21:11;30.60;57.20
45409;DHT22;31162;51.076;3.784;2023-06-14T15:23:37;30.40;57.50
45409;DHT22;31162;51.076;3.784;2023-06-14T15:26:02;30.20;56.90
45409;DHT22;31162;51.076;3.784;2023-06-14T15:28:28;29.90;57.20
45409;DHT22;31162;51.076;3.784;2023-06-14T15:31:01;30.00;58.50
45409;DHT22;31162;51.076;3.784;2023-06-14T15:33:26;30.20;58.70
45409;DHT22;31162;51.076;3.784;2023-06-14T15:35:54;30.50;58.10
45409;DHT22;31162;51.076;3.784;2023-06-14T15:38:21;30.80;57.50
45409;DHT22;31162;51.076;3.784;2023-06-14T15:40:48;30.90;57.30
45409;DHT22;31162;51.076;3.784;2023-06-14T15:43:13;30.60;57.30